Time;durP1;ratioP1;P1;durP2;ratioP2;P2;SDS_P1;SDS_P2;PMS_P1;PMS_P2;Temp;Humidity;BMP_temperature;BMP_pressure;BME280_temperature;BME280_humidity;BME280_pressure;Samples;Min_cycle;Max_cycle;Signal;HPM_P1;HPM_P2
2023/10/10 00:02:45;;;;;;;16.70;5.55;;;;;15.00;96794.00;;;;8218019;28;20574;-66
2023/10/10 00:06:49;;;;;;;12.98;5.35;;;;;15.00;96802.00;;;;8205337;28;20235;-66
2023/10/10 00:10:54;;;;;;;18.08;5.50;;;;;14.90;96803.00;;;;8213587;28;20207;-66
2023/10/10 00:14:58;;;;;;;20.92;5.57;;;;;14.90;96798.00;;;;8215808;28;20203;-65
2023/10/10 00:19:11;;;;;;;11.45;4.97;;;;;14.80;96789.00;;;;8219844;28;20234;-65
2023/10/10 00:23:16;;;;;;;16.42;5.20;;;;;14.70;96786.00;;;;8218111;28;20238;-65
2023/10/10 00:27:23;;;;;;;13.68;5.40;;;;;14.70;96785.00;;;;8217589;28;20231;-65
2023/10/10 00:31:31;;;;;;;13.32;5.20;;;;;14.60;96781.00;;;;8217577;28;20231;-66
2023/10/10 00:35:35;;;;;;;18.20;5.75;;;;;14.50;96771.00;;;;8216844;28;20199;-65
2023/10/10 00:39:39;;;;;;;14.20;5.32;;;;;14.40;96789.00;;;;8216488;28;20799;-66
2023/10/10 00:43:42;;;;;;;16.92;5.68;;;;;14.40;96779.00;;;;8215676;28;20882;-66
2023/10/10 00:47:49;;;;;;;14.38;5.50;;;;;14.30;96776.00;;;;8216073;28;20309;-65
2023/10/10 00:52:00;;;;;;;14.57;5.68;;;;;14.30;96772.00;;;;8214018;28;20659;-65
2023/10/10 00:56:06;;;;;;;17.02;5.75;;;;;14.10;96777.00;;;;8216650;28;20294;-64
2023/10/10 01:00:14;;;;;;;14.35;5.25;;;;;13.90;96769.00;;;;8217572;28;20712;-64
2023/10/10 01:04:28;;;;;;;14.60;5.75;;;;;13.80;96775.00;;;;8216943;28;20248;-65
2023/10/10 01:08:50;;;;;;;12.55;5.18;;;;;13.50;96775.00;;;;8216448;28;20206;-67
2023/10/10 01:12:53;;;;;;;17.15;6.35;;;;;13.50;96781.00;;;;8215729;28;20261;-64
2023/10/10 01:16:59;;;;;;;15.85;5.93;;;;;13.40;96777.00;;;;8212803;28;20296;-64
2023/10/10 01:21:04;;;;;;;11.90;5.15;;;;;13.30;96769.00;;;;8213856;28;20337;-65
2023/10/10 01:29:28;;;;;;;19.42;5.65;;;;;13.30;96767.00;;;;8211192;28;20211;-65
2023/10/10 01:33:42;;;;;;;14.60;5.70;;;;;13.20;96767.00;;;;8215126;28;20766;-65
2023/10/10 01:37:54;;;;;;;20.63;5.78;;;;;13.10;96766.00;;;;8218079;28;20230;-65
2023/10/10 01:41:58;;;;;;;13.77;5.53;;;;;13.10;96769.00;;;;8214492;28;20198;-66
2023/10/10 01:46:09;;;;;;;18.88;7.18;;;;;13.10;96767.00;;;;8220727;28;20283;-66
2023/10/10 01:50:13;;;;;;;16.73;5.38;;;;;13.00;96763.00;;;;8213931;28;20218;-65
2023/10/10 01:54:19;;;;;;;15.13;5.47;;;;;12.90;96765.00;;;;8214163;28;20211;-65
2023/10/10 01:58:25;;;;;;;13.80;5.72;;;;;12.80;96758.00;;;;8212869;28;20226;-65
2023/10/10 02:02:30;;;;;;;17.02;5.57;;;;;12.70;96756.00;;;;8208986;28;20246;-65
2023/10/10 02:06:35;;;;;;;15.85;6.32;;;;;12.60;96754.00;;;;8211115;28;20203;-65
2023/10/10 02:10:45;;;;;;;14.20;5.32;;;;;12.60;96762.00;;;;8205770;28;20205;-65
2023/10/10 02:14:49;;;;;;;11.88;5.47;;;;;12.60;96759.00;;;;8213973;28;20650;-65
2023/10/10 02:18:54;;;;;;;17.58;5.82;;;;;12.50;96763.00;;;;8212460;28;20984;-65
2023/10/10 02:23:08;;;;;;;16.02;5.60;;;;;12.50;96758.00;;;;8214706;28;20930;-65
2023/10/10 02:27:13;;;;;;;16.48;6.30;;;;;12.40;96757.00;;;;8213133;28;20724;-65
2023/10/10 02:31:18;;;;;;;12.95;5.35;;;;;12.40;96762.00;;;;8205407;28;20664;-65
2023/10/10 02:35:26;;;;;;;17.05;5.70;;;;;12.40;96765.00;;;;8211834;28;20214;-65
2023/10/10 02:39:32;;;;;;;20.27;6.93;;;;;12.40;96766.00;;;;8214740;28;20289;-65
2023/10/10 02:43:45;;;;;;;18.73;6.13;;;;;12.40;96769.00;;;;8214191;28;20293;-65
2023/10/10 02:47:53;;;;;;;17.85;6.07;;;;;12.30;96773.00;;;;8219724;28;20818;-65
2023/10/10 02:51:57;;;;;;;17.05;5.55;;;;;12.30;96763.00;;;;8219423;28;20287;-65
2023/10/10 02:56:02;;;;;;;15.32;6.13;;;;;12.20;96765.00;;;;8220499;28;21118;-65
2023/10/10 03:00:27;;;;;;;13.88;5.70;;;;;12.10;96770.00;;;;8220345;28;20245;-65
2023/10/10 03:05:05;;;;;;;21.25;5.78;;;;;12.10;96765.00;;;;8310744;28;20227;-96
2023/10/10 03:09:28;;;;;;;19.05;5.82;;;;;12.10;96775.00;;;;8320232;28;20213;-96
2023/10/10 03:13:47;;;;;;;11.90;5.68;;;;;12.10;96774.00;;;;8318581;28;20222;-96
2023/10/10 03:18:17;;;;;;;18.10;6.38;;;;;12.00;96771.00;;;;8318544;28;20307;-96
2023/10/10 03:22:52;;;;;;;13.48;6.47;;;;;11.90;96780.00;;;;8315326;28;20229;-96
2023/10/10 03:27:11;;;;;;;19.42;6.95;;;;;11.90;96784.00;;;;8318799;28;20204;-96
2023/10/10 03:31:35;;;;;;;15.30;6.22;;;;;11.80;96781.00;;;;8321208;28;20201;-96
2023/10/10 05:25:55;;;;;;;23.27;7.78;;;;;10.60;96783.00;;;;8283524;28;20224;-64
2023/10/10 05:29:59;;;;;;;23.17;8.20;;;;;10.50;96782.00;;;;8280876;28;20228;-64
2023/10/10 05:34:02;;;;;;;27.35;7.90;;;;;10.50;96789.00;;;;8288696;28;20258;-64
2023/10/10 05:38:08;;;;;;;24.73;8.30;;;;;10.50;96787.00;;;;8279873;28;20300;-64
2023/10/10 05:42:20;;;;;;;23.05;8.35;;;;;10.50;96790.00;;;;8277841;28;20268;-64
2023/10/10 05:46:25;;;;;;;28.58;9.73;;;;;10.50;96796.00;;;;8287207;28;20941;-64
2023/10/10 05:50:29;;;;;;;23.67;7.97;;;;;10.60;96801.00;;;;8282840;28;20309;-64
2023/10/10 05:54:32;;;;;;;23.30;8.27;;;;;10.60;96801.00;;;;8293809;28;20205;-64
2023/10/10 05:58:36;;;;;;;29.10;8.80;;;;;10.60;96812.00;;;;8275042;28;20253;-64
2023/10/10 06:02:41;;;;;;;34.88;8.90;;;;;10.70;96813.00;;;;8275970;28;20256;-64
2023/10/10 06:06:46;;;;;;;26.50;8.75;;;;;10.80;96816.00;;;;8276978;28;20257;-64
2023/10/10 06:10:49;;;;;;;27.38;10.63;;;;;10.90;96814.00;;;;8271083;28;20195;-64
2023/10/10 06:14:54;;;;;;;29.42;9.07;;;;;11.10;96819.00;;;;8288011;28;20198;-64
2023/10/10 06:18:57;;;;;;;25.83;8.20;;;;;11.30;96818.00;;;;8292652;28;21033;-64
2023/10/10 06:23:01;;;;;;;21.40;8.80;;;;;11.50;96809.00;;;;8290009;28;20234;-64
2023/10/10 06:27:04;;;;;;;24.17;9.02;;;;;11.70;96824.00;;;;8283589;28;20620;-64
2023/10/10 06:31:12;;;;;;;31.35;9.95;;;;;11.80;96825.00;;;;8288776;28;20292;-64
2023/10/10 06:35:27;;;;;;;26.00;9.10;;;;;12.00;96840.00;;;;8280840;28;20204;-64
2023/10/10 06:39:33;;;;;;;21.90;8.75;;;;;12.10;96843.00;;;;8293195;28;20203;-64
2023/10/10 06:43:39;;;;;;;21.95;8.38;;;;;12.20;96841.00;;;;8286281;28;20247;-64
2023/10/10 06:47:44;;;;;;;29.73;8.93;;;;;12.40;96842.00;;;;8287849;28;20812;-65
2023/10/10 06:51:49;;;;;;;21.35;9.02;;;;;12.60;96843.00;;;;8279187;28;20201;-64
2023/10/10 06:55:52;;;;;;;25.48;8.30;;;;;12.80;96850.00;;;;8283796;28;20204;-65
2023/10/10 06:59:56;;;;;;;22.38;7.90;;;;;13.10;96851.00;;;;8280565;28;20506;-65
2023/10/10 07:04:04;;;;;;;25.48;7.15;;;;;13.40;96854.00;;;;8275140;28;20230;-65
2023/10/10 07:08:18;;;;;;;22.30;7.85;;;;;13.60;96854.00;;;;8282991;28;20204;-65
2023/10/10 07:12:21;;;;;;;19.70;6.80;;;;;13.90;96854.00;;;;8280700;28;20268;-63
2023/10/10 07:16:24;;;;;;;23.38;7.82;;;;;14.10;96846.00;;;;8278595;28;20317;-63
2023/10/10 07:24:55;;;;;;;20.75;6.78;;;;;14.60;96849.00;;;;8283740;28;20726;-64
2023/10/10 07:29:25;;;;;;;19.50;7.65;;;;;14.80;96852.00;;;;8280553;28;20229;-64
2023/10/10 07:33:29;;;;;;;20.20;6.43;;;;;15.10;96858.00;;;;8285082;28;20213;-64
2023/10/10 07:37:33;;;;;;;14.57;6.72;;;;;15.40;96857.00;;;;8276406;28;20289;-64
2023/10/10 07:41:36;;;;;;;19.52;6.85;;;;;15.70;96856.00;;;;8280877;28;20214;-64
2023/10/10 07:45:44;;;;;;;15.88;7.50;;;;;16.00;96866.00;;;;8281522;28;20618;-64
2023/10/10 07:49:51;;;;;;;13.95;6.47;;;;;16.40;96867.00;;;;8284825;28;20282;-63
2023/10/10 07:54:12;;;;;;;19.92;6.30;;;;;16.70;96872.00;;;;8287160;28;20198;-64
2023/10/10 07:58:16;;;;;;;19.27;6.43;;;;;17.10;96876.00;;;;8295293;28;20197;-64
2023/10/10 08:02:31;;;;;;;19.85;6.90;;;;;17.40;96876.00;;;;8285705;28;20229;-64
2023/10/10 08:06:38;;;;;;;14.63;6.43;;;;;17.70;96877.00;;;;8277735;28;20704;-64
2023/10/10 08:10:45;;;;;;;20.92;6.65;;;;;17.90;96876.00;;;;8274973;28;20293;-63
2023/10/10 08:14:49;;;;;;;21.52;6.45;;;;;18.10;96883.00;;;;8276523;28;20245;-63
2023/10/10 08:18:53;;;;;;;19.38;6.60;;;;;18.30;96880.00;;;;8281797;28;20760;-64
2023/10/10 08:22:59;;;;;;;16.25;6.82;;;;;18.50;96880.00;;;;8277269;28;20233;-64
2023/10/10 08:27:10;;;;;;;19.33;7.55;;;;;18.60;96886.00;;;;8288190;28;20636;-64
2023/10/10 08:31:14;;;;;;;18.73;6.70;;;;;18.70;96889.00;;;;8281714;28;20204;-62
2023/10/10 08:35:17;;;;;;;19.73;6.90;;;;;18.80;96883.00;;;;8297500;28;20193;-62
2023/10/10 08:39:25;;;;;;;22.35;6.97;;;;;18.80;96879.00;;;;8280803;28;20907;-63
2023/10/10 08:43:31;;;;;;;18.70;7.30;;;;;18.90;96876.00;;;;8303216;28;20714;-63
2023/10/10 08:47:42;;;;;;;16.58;6.82;;;;;19.10;96872.00;;;;8291489;28;20198;-63
2023/10/10 08:51:48;;;;;;;16.73;7.32;;;;;19.20;96874.00;;;;8275226;28;20277;-63
2023/10/10 08:55:56;;;;;;;16.25;7.43;;;;;19.30;96877.00;;;;8268467;28;20217;-62
2023/10/10 09:00:01;;;;;;;17.35;7.13;;;;;19.50;96871.00;;;;8268805;28;20238;-63
2023/10/10 09:04:05;;;;;;;18.20;7.20;;;;;19.70;96871.00;;;;8279624;28;20253;-63
2023/10/10 09:08:14;;;;;;;16.83;7.20;;;;;19.80;96875.00;;;;8280455;28;20200;-63
2023/10/10 09:12:20;;;;;;;15.63;7.85;;;;;20.00;96882.00;;;;8274225;28;20250;-63
2023/10/10 09:16:44;;;;;;;20.05;7.00;;;;;20.20;96885.00;;;;8275268;28;20210;-62
2023/10/10 09:20:47;;;;;;;16.13;7.28;;;;;20.50;96886.00;;;;8277988;28;20758;-65
2023/10/10 09:24:51;;;;;;;21.65;7.22;;;;;20.80;96879.00;;;;8275980;28;20265;-63
2023/10/10 09:28:55;;;;;;;16.38;7.30;;;;;20.90;96886.00;;;;8278476;28;20615;-63
2023/10/10 09:33:12;;;;;;;15.38;6.30;;;;;21.10;96877.00;;;;8273871;28;20560;-63
2023/10/10 09:37:17;;;;;;;9.77;6.15;;;;;21.40;96879.00;;;;8278813;28;20206;-63
2023/10/10 09:41:28;;;;;;;12.70;5.50;;;;;21.60;96868.00;;;;8275966;28;20230;-63
2023/10/10 09:50:27;;;;;;;15.73;5.85;;;;;22.10;96877.00;;;;8282363;28;20711;-63
2023/10/10 09:54:25;;;;;;;18.67;6.03;;;;;22.40;96871.00;;;;8281786;28;20208;-63
2023/10/10 09:58:29;;;;;;;15.80;5.60;;;;;22.70;96875.00;;;;8275700;28;20614;-64
2023/10/10 10:02:43;;;;;;;12.73;5.68;;;;;22.90;96873.00;;;;8279712;28;20320;-63
2023/10/10 10:07:12;;;;;;;12.25;5.75;;;;;23.30;96871.00;;;;8267513;28;20209;-64
2023/10/10 10:11:26;;;;;;;16.25;5.60;;;;;23.60;96876.00;;;;8286950;28;20319;-64
2023/10/10 10:15:48;;;;;;;11.32;5.53;;;;;23.70;96883.00;;;;8293828;28;20212;-64
2023/10/10 10:20:18;;;;;;;14.52;5.60;;;;;24.30;96882.00;;;;8273283;28;20199;-64
2023/10/10 10:24:31;;;;;;;11.40;5.45;;;;;24.80;96883.00;;;;8284152;28;20237;-63
2023/10/10 10:28:36;;;;;;;13.05;4.82;;;;;24.90;96883.00;;;;8284738;28;20396;-64
2023/10/10 10:32:41;;;;;;;15.10;5.75;;;;;25.00;96884.00;;;;8281888;28;20879;-64
2023/10/10 10:36:54;;;;;;;17.65;5.55;;;;;25.10;96892.00;;;;8278964;28;20198;-64
2023/10/10 10:41:07;;;;;;;11.70;4.45;;;;;24.90;96871.00;;;;8292829;28;20210;-64
2023/10/10 10:45:35;;;;;;;10.75;5.10;;;;;24.70;96871.00;;;;8300497;28;20193;-64
2023/10/10 10:49:39;;;;;;;13.18;5.03;;;;;24.70;96875.00;;;;8294623;28;20225;-64
2023/10/10 10:53:50;;;;;;;9.00;4.57;;;;;24.70;96873.00;;;;8288945;28;20729;-65
2023/10/10 10:58:08;;;;;;;15.77;4.63;;;;;24.80;96866.00;;;;8300356;28;20253;-64
2023/10/10 11:02:15;;;;;;;10.93;4.40;;;;;24.80;96868.00;;;;8285918;28;20275;-64
2023/10/10 11:06:20;;;;;;;13.02;4.38;;;;;24.80;96872.00;;;;8280295;28;20197;-65
2023/10/10 11:10:36;;;;;;;18.23;4.57;;;;;24.90;96872.00;;;;8286894;28;20233;-63
2023/10/10 11:14:45;;;;;;;10.23;4.50;;;;;24.70;96866.00;;;;8275736;28;21062;-63
2023/10/10 11:18:57;;;;;;;7.35;3.45;;;;;24.90;96859.00;;;;8282995;28;20850;-64
2023/10/10 11:23:12;;;;;;;7.82;3.78;;;;;25.00;96865.00;;;;8270945;28;20284;-63
2023/10/10 11:27:21;;;;;;;8.35;3.92;;;;;25.20;96868.00;;;;8283375;28;20202;-63
2023/10/10 11:31:29;;;;;;;9.93;4.18;;;;;25.10;96859.00;;;;8273670;28;20221;-63
2023/10/10 11:35:32;;;;;;;9.68;3.70;;;;;25.10;96861.00;;;;8285195;28;20194;-64
2023/10/10 11:39:35;;;;;;;12.35;4.38;;;;;25.30;96843.00;;;;8286965;28;20662;-63
2023/10/10 11:43:39;;;;;;;11.38;4.05;;;;;25.40;96835.00;;;;8282600;28;20224;-64
2023/10/10 11:47:44;;;;;;;7.68;3.55;;;;;25.40;96832.00;;;;8277936;28;20281;-63
2023/10/10 11:51:47;;;;;;;10.38;4.15;;;;;25.40;96834.00;;;;8271420;28;20198;-63
2023/10/10 11:55:52;;;;;;;7.57;4.00;;;;;25.40;96834.00;;;;8279163;28;20213;-64
2023/10/10 11:59:55;;;;;;;8.82;4.18;;;;;25.40;96834.00;;;;8268473;28;20234;-63
2023/10/10 12:04:20;;;;;;;10.00;3.80;;;;;25.30;96842.00;;;;8281608;28;20269;-64
2023/10/10 12:08:24;;;;;;;15.90;4.60;;;;;25.40;96838.00;;;;8282521;28;20198;-65
2023/10/10 12:12:27;;;;;;;11.93;3.80;;;;;25.40;96825.00;;;;8286650;28;20206;-65
2023/10/10 12:16:31;;;;;;;9.75;3.85;;;;;25.40;96810.00;;;;8289005;28;20210;-64
2023/10/10 12:20:35;;;;;;;7.25;3.40;;;;;25.50;96814.00;;;;8282980;28;20202;-64
2023/10/10 12:24:40;;;;;;;13.75;4.57;;;;;25.60;96805.00;;;;8282556;28;20272;-64
2023/10/10 12:28:44;;;;;;;10.50;4.47;;;;;25.70;96810.00;;;;8287644;28;20190;-64
2023/10/10 12:32:49;;;;;;;5.55;3.20;;;;;25.80;96808.00;;;;8289816;28;20197;-64
2023/10/10 12:36:59;;;;;;;11.40;4.50;;;;;25.80;96807.00;;;;8276323;28;20194;-64
2023/10/10 12:41:05;;;;;;;11.63;4.15;;;;;25.80;96802.00;;;;8286511;28;20302;-65
2023/10/10 12:45:08;;;;;;;10.02;4.15;;;;;25.80;96809.00;;;;8276825;28;20262;-64
2023/10/10 12:49:11;;;;;;;12.80;4.88;;;;;26.00;96805.00;;;;8276083;28;20199;-65
2023/10/10 12:53:19;;;;;;;11.45;4.35;;;;;25.90;96802.00;;;;8283570;28;20201;-64
2023/10/10 12:57:23;;;;;;;10.35;3.85;;;;;25.90;96799.00;;;;8284387;28;20229;-64
2023/10/10 13:01:27;;;;;;;12.55;3.85;;;;;26.00;96791.00;;;;8284672;28;20707;-62
2023/10/10 13:05:30;;;;;;;11.60;3.88;;;;;26.00;96791.00;;;;8290920;28;20594;-64
2023/10/10 13:09:42;;;;;;;13.75;4.30;;;;;26.10;96796.00;;;;8285797;28;20206;-63
2023/10/10 13:13:48;;;;;;;12.90;4.30;;;;;26.10;96787.00;;;;8287975;28;20203;-63
2023/10/10 13:17:53;;;;;;;9.63;4.18;;;;;26.10;96788.00;;;;8275274;28;20198;-64
2023/10/10 13:21:58;;;;;;;11.05;4.30;;;;;26.00;96786.00;;;;8273091;28;20763;-64
2023/10/10 13:26:06;;;;;;;12.13;3.65;;;;;26.00;96785.00;;;;8290987;28;20214;-63
2023/10/10 13:30:09;;;;;;;7.47;3.67;;;;;26.00;96779.00;;;;8281409;28;20238;-63
2023/10/10 13:34:13;;;;;;;10.38;4.40;;;;;25.90;96778.00;;;;8283377;28;20308;-64
2023/10/10 13:38:17;;;;;;;15.70;4.75;;;;;26.00;96780.00;;;;8292903;28;20206;-64
2023/10/10 13:42:21;;;;;;;11.77;3.55;;;;;26.00;96779.00;;;;8295349;28;20238;-63
2023/10/10 13:46:26;;;;;;;16.75;3.88;;;;;26.00;96779.00;;;;8276813;28;20217;-64
2023/10/10 13:50:31;;;;;;;12.07;3.90;;;;;25.90;96777.00;;;;8289483;28;20198;-64
2023/10/10 13:54:34;;;;;;;8.98;3.63;;;;;26.00;96776.00;;;;8294343;28;20209;-63
2023/10/10 13:58:46;;;;;;;10.23;3.97;;;;;26.10;96776.00;;;;8279832;28;20194;-63
2023/10/10 14:02:49;;;;;;;11.80;4.10;;;;;26.20;96777.00;;;;8274200;28;20321;-63
2023/10/10 14:06:54;;;;;;;8.75;3.90;;;;;26.30;96762.00;;;;8274053;28;20831;-63
2023/10/10 14:10:59;;;;;;;14.65;4.15;;;;;26.30;96762.00;;;;8271098;28;20611;-63
2023/10/10 14:15:04;;;;;;;9.15;4.18;;;;;26.40;96761.00;;;;8279844;28;20197;-63
2023/10/10 14:19:07;;;;;;;12.30;4.65;;;;;26.50;96769.00;;;;8282221;28;20719;-63
2023/10/10 14:23:11;;;;;;;9.48;3.78;;;;;26.60;96772.00;;;;8277317;28;20598;-62
2023/10/10 14:27:17;;;;;;;12.90;3.90;;;;;26.60;96770.00;;;;8284867;28;20225;-63
2023/10/10 14:31:23;;;;;;;12.90;4.03;;;;;26.50;96755.00;;;;8286857;28;20768;-63
2023/10/10 14:35:26;;;;;;;16.65;3.60;;;;;26.60;96767.00;;;;8273144;28;20296;-63
2023/10/10 14:39:31;;;;;;;9.57;3.90;;;;;26.70;96764.00;;;;8284029;28;20209;-63
2023/10/10 14:43:35;;;;;;;15.43;4.22;;;;;26.80;96763.00;;;;8284553;28;20233;-63
2023/10/10 14:47:43;;;;;;;11.98;4.28;;;;;26.70;96757.00;;;;8291046;28;20193;-63
2023/10/10 14:51:48;;;;;;;9.82;3.38;;;;;26.60;96761.00;;;;8285752;28;20307;-63
2023/10/10 14:55:52;;;;;;;13.52;4.25;;;;;26.60;96761.00;;;;8279256;28;20826;-63
2023/10/10 14:59:55;;;;;;;14.05;4.13;;;;;26.50;96753.00;;;;8284568;28;20214;-63
2023/10/10 15:04:02;;;;;;;10.60;3.80;;;;;26.40;96755.00;;;;8285106;28;20297;-63
2023/10/10 15:08:05;;;;;;;10.98;4.15;;;;;26.30;96754.00;;;;8291707;28;20198;-63
2023/10/10 15:12:09;;;;;;;14.57;5.40;;;;;26.20;96755.00;;;;8280622;28;20209;-62
2023/10/10 15:16:12;;;;;;;13.82;4.35;;;;;26.10;96751.00;;;;8282182;28;20232;-63
2023/10/10 15:20:16;;;;;;;14.02;4.13;;;;;26.00;96757.00;;;;8289448;28;20551;-63
2023/10/10 15:24:23;;;;;;;11.93;4.82;;;;;25.80;96756.00;;;;8296927;28;20692;-63
2023/10/10 15:28:28;;;;;;;16.27;4.65;;;;;25.60;96756.00;;;;8291568;28;20587;-63
2023/10/10 15:32:39;;;;;;;15.43;4.82;;;;;25.40;96762.00;;;;8280963;28;20976;-63
2023/10/10 15:36:45;;;;;;;12.25;4.70;;;;;25.10;96758.00;;;;8289880;28;20202;-63
2023/10/10 15:40:52;;;;;;;14.55;4.45;;;;;24.90;96762.00;;;;8300921;28;21070;-63
2023/10/10 15:44:55;;;;;;;15.02;5.15;;;;;24.70;96763.00;;;;8274193;28;20256;-63
2023/10/10 15:48:59;;;;;;;21.83;5.03;;;;;24.50;96757.00;;;;8282171;28;20208;-63
2023/10/10 15:53:05;;;;;;;13.27;4.18;;;;;24.30;96761.00;;;;8287987;28;20281;-63
2023/10/10 15:57:08;;;;;;;9.57;4.45;;;;;24.00;96761.00;;;;8290141;28;21844;-63
2023/10/10 16:01:14;;;;;;;13.80;4.80;;;;;23.90;96761.00;;;;8277920;28;21805;-63
2023/10/10 16:05:18;;;;;;;13.02;4.90;;;;;23.70;96758.00;;;;8283163;28;20261;-63
2023/10/10 16:09:29;;;;;;;15.02;4.82;;;;;23.50;96764.00;;;;8286771;28;20293;-63
2023/10/10 16:13:35;;;;;;;15.30;4.57;;;;;23.30;96759.00;;;;8277805;28;20198;-62
2023/10/10 16:17:39;;;;;;;14.93;4.75;;;;;23.10;96765.00;;;;8283765;28;20561;-63
2023/10/10 16:21:42;;;;;;;14.40;4.75;;;;;22.90;96759.00;;;;8283844;28;20198;-63
2023/10/10 16:25:49;;;;;;;12.55;4.97;;;;;22.70;96770.00;;;;8286236;28;20268;-63
2023/10/10 16:29:55;;;;;;;15.13;4.85;;;;;22.40;96771.00;;;;8288467;28;20233;-63
2023/10/10 16:33:59;;;;;;;10.48;4.93;;;;;22.10;96776.00;;;;8283131;28;20279;-63
2023/10/10 16:38:02;;;;;;;19.15;5.45;;;;;21.90;96768.00;;;;8286377;28;20297;-63
2023/10/10 16:42:07;;;;;;;13.48;5.05;;;;;21.60;96773.00;;;;8284643;28;20202;-62
2023/10/10 16:46:12;;;;;;;21.75;4.95;;;;;21.20;96775.00;;;;8273457;28;20560;-62
2023/10/10 16:50:16;;;;;;;12.25;5.05;;;;;20.70;96784.00;;;;8287799;28;20198;-62
2023/10/10 16:54:19;;;;;;;14.77;4.72;;;;;20.30;96779.00;;;;8285337;28;20236;-62
2023/10/10 16:58:24;;;;;;;12.43;4.88;;;;;19.80;96779.00;;;;8281061;28;20198;-62
2023/10/10 17:02:27;;;;;;;15.07;5.30;;;;;19.40;96779.00;;;;8290698;28;20214;-62
2023/10/10 17:06:32;;;;;;;18.98;5.18;;;;;19.00;96780.00;;;;8272388;28;20225;-62
2023/10/10 17:10:35;;;;;;;10.85;4.63;;;;;18.70;96777.00;;;;8282129;28;20628;-62
2023/10/10 17:14:44;;;;;;;14.90;5.95;;;;;18.30;96780.00;;;;8284732;28;20207;-63
2023/10/10 17:18:49;;;;;;;11.05;4.72;;;;;18.00;96781.00;;;;8285387;28;20194;-62
2023/10/10 17:22:56;;;;;;;16.55;4.75;;;;;17.70;96786.00;;;;8274453;28;20243;-62
2023/10/10 17:27:00;;;;;;;18.58;5.70;;;;;17.50;96791.00;;;;8291582;28;20230;-62
2023/10/10 17:31:05;;;;;;;17.15;5.40;;;;;17.20;96779.00;;;;8287507;28;20225;-62
2023/10/10 17:35:09;;;;;;;19.80;5.28;;;;;17.00;96786.00;;;;8302289;28;20230;-62
2023/10/10 17:39:15;;;;;;;15.60;5.65;;;;;16.80;96785.00;;;;8292748;28;20210;-62
2023/10/10 17:43:22;;;;;;;13.65;5.25;;;;;16.60;96793.00;;;;8283016;28;20288;-62
2023/10/10 17:47:28;;;;;;;14.23;5.72;;;;;16.50;96793.00;;;;8289022;28;20226;-63
2023/10/10 17:51:33;;;;;;;15.70;6.13;;;;;16.40;96799.00;;;;8283255;28;20194;-63
2023/10/10 17:55:37;;;;;;;18.17;5.90;;;;;16.20;96801.00;;;;8278932;28;20351;-62
2023/10/10 17:59:40;;;;;;;18.65;6.07;;;;;16.10;96798.00;;;;8281067;28;20571;-63
2023/10/10 18:03:46;;;;;;;21.77;6.10;;;;;16.00;96796.00;;;;8272163;28;20664;-62
2023/10/10 18:07:51;;;;;;;13.25;6.35;;;;;15.90;96801.00;;;;8272469;28;20281;-62
2023/10/10 18:11:54;;;;;;;15.43;6.07;;;;;15.70;96796.00;;;;8271480;28;20306;-62
2023/10/10 18:15:58;;;;;;;17.92;5.88;;;;;15.60;96796.00;;;;8265241;28;20564;-62
2023/10/10 18:20:14;;;;;;;20.35;5.97;;;;;15.50;96786.00;;;;8280055;28;20212;-62
2023/10/10 18:24:17;;;;;;;19.00;5.10;;;;;15.30;96789.00;;;;8281300;28;20231;-62
2023/10/10 18:28:20;;;;;;;13.82;5.07;;;;;15.10;96792.00;;;;8280312;28;20681;-62
2023/10/10 18:32:23;;;;;;;13.30;5.55;;;;;15.00;96800.00;;;;8279534;28;20208;-62
2023/10/10 18:36:28;;;;;;;15.25;5.45;;;;;14.90;96800.00;;;;8277355;28;20876;-62
2023/10/10 18:40:31;;;;;;;21.88;5.93;;;;;14.80;96800.00;;;;8280427;28;20296;-62
2023/10/10 18:44:34;;;;;;;15.48;5.40;;;;;14.70;96809.00;;;;8287598;28;20229;-62
2023/10/10 18:48:37;;;;;;;13.48;5.60;;;;;14.60;96802.00;;;;8288085;28;20234;-62
2023/10/10 18:52:42;;;;;;;15.15;5.20;;;;;14.40;96790.00;;;;8278235;28;20198;-62
2023/10/10 18:56:45;;;;;;;16.90;6.10;;;;;14.30;96792.00;;;;8284807;28;20284;-63
2023/10/10 19:00:50;;;;;;;15.35;5.30;;;;;14.20;96791.00;;;;8287189;28;20204;-63
2023/10/10 19:04:53;;;;;;;13.68;5.50;;;;;14.10;96794.00;;;;8276876;28;20234;-62
2023/10/10 19:08:59;;;;;;;18.80;5.18;;;;;14.10;96790.00;;;;8279766;28;20985;-62
2023/10/10 19:13:04;;;;;;;18.92;6.15;;;;;14.00;96803.00;;;;8290772;28;20864;-63
2023/10/10 19:17:07;;;;;;;22.52;6.15;;;;;13.90;96801.00;;;;8283965;28;20205;-63
2023/10/10 19:21:15;;;;;;;14.45;6.22;;;;;13.90;96803.00;;;;8282270;28;20190;-63
2023/10/10 19:25:22;;;;;;;17.23;5.70;;;;;13.80;96796.00;;;;8298686;28;20228;-63
2023/10/10 19:29:28;;;;;;;20.38;6.05;;;;;13.80;96787.00;;;;8277529;28;20319;-63
2023/10/10 19:33:32;;;;;;;20.80;5.60;;;;;13.80;96787.00;;;;8278949;28;20202;-63
2023/10/10 19:37:36;;;;;;;21.48;5.70;;;;;13.80;96783.00;;;;8273334;28;20193;-63
2023/10/10 19:41:43;;;;;;;20.83;6.00;;;;;13.70;96781.00;;;;8281629;28;20747;-63
2023/10/10 19:45:46;;;;;;;16.85;5.82;;;;;13.70;96783.00;;;;8274772;28;20230;-64
2023/10/10 19:49:50;;;;;;;30.85;5.68;;;;;13.60;96781.00;;;;8285542;28;20293;-64
2023/10/10 19:53:53;;;;;;;16.05;5.75;;;;;13.50;96786.00;;;;8281073;28;20256;-63
2023/10/10 19:57:58;;;;;;;18.65;6.38;;;;;13.40;96790.00;;;;8278170;28;21003;-63
2023/10/10 20:02:01;;;;;;;21.35;6.57;;;;;13.30;96778.00;;;;8296700;28;20223;-63
2023/10/10 20:06:06;;;;;;;14.02;5.60;;;;;13.20;96784.00;;;;8294977;28;20227;-63
2023/10/10 20:10:15;;;;;;;17.38;5.65;;;;;13.10;96774.00;;;;8287718;28;20209;-63
2023/10/10 20:14:19;;;;;;;14.45;5.32;;;;;12.90;96772.00;;;;8288727;28;20698;-63
2023/10/10 20:18:22;;;;;;;18.00;6.03;;;;;12.90;96766.00;;;;8273706;28;20201;-63
2023/10/10 20:22:26;;;;;;;21.30;6.05;;;;;12.80;96768.00;;;;8280964;28;20311;-62
2023/10/10 20:26:29;;;;;;;14.50;5.82;;;;;12.80;96773.00;;;;8273774;28;20271;-62
2023/10/10 20:30:35;;;;;;;16.83;6.65;;;;;12.70;96770.00;;;;8278392;28;20205;-62
2023/10/10 20:34:40;;;;;;;19.17;6.80;;;;;12.60;96769.00;;;;8283683;28;20227;-62
2023/10/10 20:38:44;;;;;;;21.85;6.38;;;;;12.60;96765.00;;;;8281117;28;20300;-62
2023/10/10 20:42:48;;;;;;;18.10;7.05;;;;;12.50;96768.00;;;;8281595;28;20204;-62
2023/10/10 20:46:53;;;;;;;20.85;7.00;;;;;12.50;96758.00;;;;8280086;28;20228;-62
2023/10/10 20:50:56;;;;;;;19.08;6.43;;;;;12.40;96763.00;;;;8281280;28;20243;-63
2023/10/10 20:54:59;;;;;;;16.30;6.32;;;;;12.30;96770.00;;;;8280229;28;20231;-64
2023/10/10 20:59:02;;;;;;;13.02;6.20;;;;;12.30;96768.00;;;;8280397;28;20204;-63
2023/10/10 21:03:10;;;;;;;16.33;6.05;;;;;12.20;96762.00;;;;8276274;28;20287;-62
2023/10/10 21:07:13;;;;;;;15.50;6.72;;;;;12.20;96763.00;;;;8281005;28;20734;-62
2023/10/10 21:11:16;;;;;;;22.58;6.70;;;;;12.10;96757.00;;;;8286465;28;20236;-62
2023/10/10 21:15:22;;;;;;;15.00;5.80;;;;;12.10;96760.00;;;;8280473;28;20208;-62
2023/10/10 21:19:26;;;;;;;19.83;7.05;;;;;12.00;96751.00;;;;8281489;28;20230;-62
2023/10/10 21:23:29;;;;;;;14.98;6.13;;;;;12.00;96754.00;;;;8280181;28;20310;-62
2023/10/10 21:27:32;;;;;;;17.90;6.57;;;;;11.90;96761.00;;;;8284595;28;20221;-62
2023/10/10 21:31:36;;;;;;;20.23;7.07;;;;;11.90;96756.00;;;;8278557;28;21064;-63
2023/10/10 21:35:41;;;;;;;17.70;6.05;;;;;11.90;96760.00;;;;8279121;28;20310;-62
2023/10/10 21:39:47;;;;;;;20.23;6.57;;;;;11.90;96764.00;;;;8284689;28;20210;-61
2023/10/10 21:43:50;;;;;;;20.15;6.75;;;;;11.90;96765.00;;;;8286194;28;20226;-62
2023/10/10 21:47:54;;;;;;;16.90;6.20;;;;;11.80;96766.00;;;;8281552;28;20222;-62
2023/10/10 21:51:59;;;;;;;18.35;7.43;;;;;11.80;96757.00;;;;8273573;28;20204;-62
2023/10/10 21:56:05;;;;;;;11.90;6.03;;;;;11.80;96758.00;;;;8274486;28;20831;-62
2023/10/10 22:00:15;;;;;;;21.90;7.00;;;;;11.70;96759.00;;;;8277604;28;20203;-63
2023/10/10 22:04:19;;;;;;;17.08;6.63;;;;;11.70;96754.00;;;;8273639;28;20229;-62
2023/10/10 22:08:25;;;;;;;21.15;7.60;;;;;11.60;96748.00;;;;8284271;28;20232;-62
2023/10/10 22:12:29;;;;;;;23.65;7.20;;;;;11.60;96744.00;;;;8284324;28;20607;-62
2023/10/10 22:16:32;;;;;;;15.38;6.55;;;;;11.60;96752.00;;;;8271176;28;20218;-62
2023/10/10 22:20:36;;;;;;;23.38;7.95;;;;;11.60;96749.00;;;;8277516;28;20294;-62
2023/10/10 22:24:40;;;;;;;23.25;8.15;;;;;11.60;96747.00;;;;8275846;28;20202;-62